APJ187 RJBB-RJFM
Flight info
| Callsign | APJ187 |
|---|---|
| Flight time | N/A |
| Altitude | 30000 |
| Route | OBLUR Y236 VEXOT Y756 KRE Y232 SIROK Y402 RYUGU |
| Aircraft | A320/M-SDE3FGHIRWY/LB1 |
Departure
| Time | N/A |
|---|---|
| Airport | Kansai International Airport (RJBB) |
Arrival
| Time | 2026-05-03 20:43 |
|---|---|
| Airport | Miyazaki Airport (RJFM) |
| Time | Latitude | Longitude | Altitude | Speed | Heading |
|---|---|---|---|---|---|
| 2026-05-03 20:15 | 32.67334 | 132.83394 | 31810 ft | 363 kts | 218° |
| 2026-05-03 20:15 | 32.65010 | 132.82150 | 31828 ft | 372 kts | 207° |
| 2026-05-03 20:15 | 32.62637 | 132.81125 | 31809 ft | 351 kts | 213° |
| 2026-05-03 20:15 | 32.60620 | 132.79766 | 31814 ft | 327 kts | 223° |
| 2026-05-03 20:16 | 32.58937 | 132.78048 | 31817 ft | 306 kts | 231° |
| 2026-05-03 20:16 | 32.57579 | 132.76234 | 31811 ft | 293 kts | 229° |
| 2026-05-03 20:16 | 32.56037 | 132.74668 | 31773 ft | 291 kts | 224° |
| 2026-05-03 20:16 | 32.54421 | 132.73255 | 31507 ft | 288 kts | 223° |
| 2026-05-03 20:17 | 32.52819 | 132.71856 | 31189 ft | 285 kts | 224° |
| 2026-05-03 20:17 | 32.51265 | 132.70424 | 30857 ft | 282 kts | 225° |
| 2026-05-03 20:17 | 32.49739 | 132.68938 | 30482 ft | 279 kts | 226° |
| 2026-05-03 20:17 | 32.48284 | 132.67461 | 30082 ft | 279 kts | 227° |
| 2026-05-03 20:18 | 32.46830 | 132.65946 | 29690 ft | 278 kts | 227° |
| 2026-05-03 20:18 | 32.45392 | 132.64429 | 29291 ft | 276 kts | 228° |
| 2026-05-03 20:18 | 32.43966 | 132.62915 | 28884 ft | 274 kts | 228° |
| 2026-05-03 20:18 | 32.42549 | 132.61411 | 28497 ft | 273 kts | 228° |
| 2026-05-03 20:19 | 32.41144 | 132.59923 | 28186 ft | 269 kts | 228° |
| 2026-05-03 20:19 | 32.39755 | 132.58455 | 27816 ft | 267 kts | 228° |
| 2026-05-03 20:19 | 32.38376 | 132.57000 | 27437 ft | 265 kts | 228° |
| 2026-05-03 20:19 | 32.37005 | 132.55555 | 27053 ft | 263 kts | 228° |
| 2026-05-03 20:20 | 32.35653 | 132.54131 | 26761 ft | 258 kts | 228° |
| 2026-05-03 20:20 | 32.34318 | 132.52725 | 26394 ft | 256 kts | 228° |
| 2026-05-03 20:20 | 32.32989 | 132.51324 | 26030 ft | 255 kts | 228° |
| 2026-05-03 20:20 | 32.31673 | 132.49938 | 25771 ft | 251 kts | 228° |
| 2026-05-03 20:21 | 32.30394 | 132.48594 | 25592 ft | 243 kts | 228° |
| 2026-05-03 20:21 | 32.29167 | 132.47252 | 25318 ft | 237 kts | 235° |
| 2026-05-03 20:21 | 32.28480 | 132.45545 | 25004 ft | 232 kts | 259° |
| 2026-05-03 20:21 | 32.28568 | 132.43617 | 24656 ft | 240 kts | 271° |
| 2026-05-03 20:22 | 32.28882 | 132.41666 | 24308 ft | 242 kts | 272° |
| 2026-05-03 20:22 | 32.29218 | 132.39725 | 24020 ft | 241 kts | 272° |
| 2026-05-03 20:22 | 32.29550 | 132.37793 | 23724 ft | 238 kts | 270° |
| 2026-05-03 20:22 | 32.29505 | 132.35916 | 23431 ft | 225 kts | 251° |
| 2026-05-03 20:23 | 32.28815 | 132.34291 | 23059 ft | 225 kts | 233° |
| 2026-05-03 20:23 | 32.27687 | 132.32959 | 22669 ft | 228 kts | 230° |
| 2026-05-03 20:23 | 32.26547 | 132.31673 | 22390 ft | 225 kts | 230° |
| 2026-05-03 20:23 | 32.25422 | 132.30409 | 22072 ft | 222 kts | 230° |
| 2026-05-03 20:24 | 32.24286 | 132.29126 | 21386 ft | 234 kts | 230° |
| 2026-05-03 20:24 | 32.23075 | 132.27749 | 20728 ft | 253 kts | 229° |
| 2026-05-03 20:24 | 32.21773 | 132.26270 | 20123 ft | 264 kts | 229° |
| 2026-05-03 20:24 | 32.20475 | 132.24720 | 19540 ft | 278 kts | 233° |
| 2026-05-03 20:25 | 32.19158 | 132.22936 | 18951 ft | 294 kts | 232° |
| 2026-05-03 20:25 | 32.17798 | 132.21107 | 18382 ft | 297 kts | 232° |
| 2026-05-03 20:25 | 32.16426 | 132.19276 | 17810 ft | 300 kts | 232° |
| 2026-05-03 20:25 | 32.15010 | 132.17379 | 17165 ft | 314 kts | 232° |
| 2026-05-03 20:26 | 32.13564 | 132.15441 | 16531 ft | 315 kts | 231° |
| 2026-05-03 20:26 | 32.12116 | 132.13502 | 15875 ft | 314 kts | 231° |
| 2026-05-03 20:26 | 32.10670 | 132.11569 | 15264 ft | 313 kts | 231° |
| 2026-05-03 20:26 | 32.09232 | 132.09643 | 14687 ft | 312 kts | 231° |
| 2026-05-03 20:27 | 32.07800 | 132.07728 | 14106 ft | 311 kts | 231° |
| 2026-05-03 20:27 | 32.06372 | 132.05816 | 13518 ft | 310 kts | 231° |
| 2026-05-03 20:27 | 32.04952 | 132.03915 | 12864 ft | 309 kts | 231° |
| 2026-05-03 20:27 | 32.03534 | 132.02021 | 12230 ft | 307 kts | 231° |
| 2026-05-03 20:28 | 32.02122 | 132.00133 | 11627 ft | 307 kts | 231° |
| 2026-05-03 20:28 | 32.00720 | 131.98255 | 11167 ft | 302 kts | 231° |
| 2026-05-03 20:28 | 31.99349 | 131.96423 | 10806 ft | 295 kts | 231° |
| 2026-05-03 20:28 | 31.98013 | 131.94646 | 10595 ft | 283 kts | 231° |
| 2026-05-03 20:29 | 31.96734 | 131.92947 | 10472 ft | 271 kts | 231° |
| 2026-05-03 20:29 | 31.95508 | 131.91321 | 10343 ft | 260 kts | 232° |
| 2026-05-03 20:29 | 31.94335 | 131.89764 | 10176 ft | 249 kts | 232° |
| 2026-05-03 20:29 | 31.93199 | 131.88253 | 9960 ft | 244 kts | 232° |
| 2026-05-03 20:30 | 31.92076 | 131.86755 | 9720 ft | 244 kts | 232° |
| 2026-05-03 20:30 | 31.91058 | 131.85173 | 9452 ft | 242 kts | 242° |
| 2026-05-03 20:30 | 31.90421 | 131.83355 | 9195 ft | 240 kts | 255° |
| 2026-05-03 20:30 | 31.90192 | 131.81416 | 8939 ft | 241 kts | 264° |
| 2026-05-03 20:31 | 31.90081 | 131.79443 | 8683 ft | 241 kts | 264° |
| 2026-05-03 20:31 | 31.89964 | 131.77480 | 8447 ft | 240 kts | 264° |
| 2026-05-03 20:31 | 31.89844 | 131.75527 | 8195 ft | 239 kts | 264° |
| 2026-05-03 20:31 | 31.89724 | 131.73579 | 7944 ft | 239 kts | 264° |
| 2026-05-03 20:32 | 31.89604 | 131.71634 | 7693 ft | 238 kts | 265° |
| 2026-05-03 20:32 | 31.89485 | 131.69694 | 7449 ft | 237 kts | 265° |
| 2026-05-03 20:32 | 31.89366 | 131.67757 | 7185 ft | 237 kts | 265° |
| 2026-05-03 20:32 | 31.89248 | 131.65820 | 6943 ft | 237 kts | 265° |
| 2026-05-03 20:33 | 31.89129 | 131.63884 | 6699 ft | 237 kts | 265° |
| 2026-05-03 20:33 | 31.89011 | 131.61973 | 6462 ft | 238 kts | 265° |
| 2026-05-03 20:33 | 31.88891 | 131.60034 | 6223 ft | 237 kts | 265° |
| 2026-05-03 20:33 | 31.88772 | 131.58104 | 5969 ft | 236 kts | 266° |
| 2026-05-03 20:34 | 31.88609 | 131.56184 | 5737 ft | 236 kts | 258° |
| 2026-05-03 20:34 | 31.87833 | 131.54493 | 5485 ft | 240 kts | 233° |
| 2026-05-03 20:34 | 31.86442 | 131.53380 | 5279 ft | 250 kts | 206° |
| 2026-05-03 20:34 | 31.84683 | 131.53242 | 5152 ft | 261 kts | 176° |
| 2026-05-03 20:35 | 31.83028 | 131.54163 | 5017 ft | 269 kts | 145° |
| 2026-05-03 20:35 | 31.81926 | 131.55923 | 4905 ft | 269 kts | 112° |
| 2026-05-03 20:35 | 31.81644 | 131.58053 | 4762 ft | 261 kts | 87° |
| 2026-05-03 20:35 | 31.81828 | 131.60130 | 4639 ft | 251 kts | 78° |
| 2026-05-03 20:36 | 31.82107 | 131.62122 | 4503 ft | 243 kts | 77° |
| 2026-05-03 20:36 | 31.82391 | 131.64062 | 4280 ft | 240 kts | 77° |
| 2026-05-03 20:36 | 31.82665 | 131.65986 | 4018 ft | 238 kts | 77° |
| 2026-05-03 20:36 | 31.82930 | 131.67894 | 3767 ft | 235 kts | 77° |
| 2026-05-03 20:37 | 31.83227 | 131.69765 | 3540 ft | 229 kts | 65° |
| 2026-05-03 20:37 | 31.84072 | 131.71224 | 3339 ft | 208 kts | 27° |
| 2026-05-03 20:37 | 31.85349 | 131.71779 | 3215 ft | 192 kts | 356° |
| 2026-05-03 20:37 | 31.86640 | 131.71666 | 3090 ft | 183 kts | 337° |
| 2026-05-03 20:38 | 31.87773 | 131.71056 | 2964 ft | 176 kts | 319° |
| 2026-05-03 20:38 | 31.88638 | 131.70063 | 2834 ft | 173 kts | 303° |
| 2026-05-03 20:38 | 31.89164 | 131.68812 | 2718 ft | 171 kts | 286° |
| 2026-05-03 20:38 | 31.89309 | 131.67450 | 2586 ft | 171 kts | 270° |
| 2026-05-03 20:39 | 31.89210 | 131.66036 | 2455 ft | 170 kts | 269° |
| 2026-05-03 20:39 | 31.89114 | 131.64660 | 2329 ft | 171 kts | 269° |
| 2026-05-03 20:39 | 31.89016 | 131.63262 | 2198 ft | 171 kts | 268° |
| 2026-05-03 20:39 | 31.88919 | 131.61879 | 2104 ft | 171 kts | 267° |
| 2026-05-03 20:40 | 31.88820 | 131.60467 | 2022 ft | 173 kts | 267° |
| 2026-05-03 20:40 | 31.88724 | 131.59107 | 2034 ft | 157 kts | 267° |
| 2026-05-03 20:40 | 31.88637 | 131.57883 | 1898 ft | 144 kts | 267° |
| 2026-05-03 20:40 | 31.88555 | 131.56708 | 1732 ft | 145 kts | 268° |
| 2026-05-03 20:41 | 31.88473 | 131.55553 | 1580 ft | 137 kts | 266° |
| 2026-05-03 20:41 | 31.88395 | 131.54447 | 1381 ft | 138 kts | 266° |
| 2026-05-03 20:41 | 31.88315 | 131.53303 | 1193 ft | 141 kts | 265° |
| 2026-05-03 20:41 | 31.88236 | 131.52185 | 1012 ft | 135 kts | 266° |
| 2026-05-03 20:42 | 31.88157 | 131.51072 | 833 ft | 138 kts | 265° |
| 2026-05-03 20:42 | 31.88104 | 131.50328 | 721 ft | 138 kts | 264° |
| 2026-05-03 20:42 | 31.88025 | 131.49222 | 561 ft | 135 kts | 264° |
| 2026-05-03 20:42 | 31.87948 | 131.48139 | 397 ft | 132 kts | 264° |
| 2026-05-03 20:43 | 31.87871 | 131.47055 | 237 ft | 132 kts | 263° |
| 2026-05-03 20:43 | 31.87795 | 131.45989 | 59 ft | 130 kts | 264° |
| 2026-05-03 20:43 | 31.87725 | 131.45086 | 33 ft | 83 kts | 265° |
| 2026-05-03 20:43 | 31.87692 | 131.44624 | 32 ft | 21 kts | 264° |
| 2026-05-03 20:44 | 31.87633 | 131.44583 | 31 ft | 11 kts | 176° |
| 2026-05-03 20:44 | 31.87550 | 131.44584 | 32 ft | 11 kts | 204° |
| 2026-05-03 20:44 | 31.87520 | 131.44496 | 32 ft | 13 kts | 263° |
| 2026-05-03 20:44 | 31.87512 | 131.44384 | 31 ft | 15 kts | 266° |
| 2026-05-03 20:45 | 31.87504 | 131.44251 | 31 ft | 17 kts | 264° |
| 2026-05-03 20:45 | 31.87453 | 131.44212 | 31 ft | 11 kts | 180° |
| 2026-05-03 20:45 | 31.87369 | 131.44218 | 31 ft | 11 kts | 173° |
| 2026-05-03 20:45 | 31.87361 | 131.44219 | 31 ft | 0 kts | 173° |